sensor_id;sensor_type;location;lat;lon;timestamp;temperature;humidity
13798;DHT22;6970;51.340;3.240;2023-04-16T00:02:05;9.00;99.90
13798;DHT22;6970;51.340;3.240;2023-04-16T00:04:35;9.00;99.90
13798;DHT22;6970;51.340;3.240;2023-04-16T00:07:06;9.00;99.90
13798;DHT22;6970;51.340;3.240;2023-04-16T00:09:36;9.00;99.90
13798;DHT22;6970;51.340;3.240;2023-04-16T00:12:03;9.00;99.90
13798;DHT22;6970;51.340;3.240;2023-04-16T00:14:31;8.90;99.90
13798;DHT22;6970;51.340;3.240;2023-04-16T00:17:01;8.90;99.90
13798;DHT22;6970;51.340;3.240;2023-04-16T00:19:30;8.90;99.90
13798;DHT22;6970;51.340;3.240;2023-04-16T00:21:57;8.90;99.90
13798;DHT22;6970;51.340;3.240;2023-04-16T00:24:24;8.90;99.90
13798;DHT22;6970;51.340;3.240;2023-04-16T00:26:54;8.90;99.90
13798;DHT22;6970;51.340;3.240;2023-04-16T00:29:25;8.90;99.90
13798;DHT22;6970;51.340;3.240;2023-04-16T00:31:57;8.90;99.90
13798;DHT22;6970;51.340;3.240;2023-04-16T00:34:27;8.90;99.90
13798;DHT22;6970;51.340;3.240;2023-04-16T00:36:54;8.90;99.90
13798;DHT22;6970;51.340;3.240;2023-04-16T00:39:21;8.90;99.90
13798;DHT22;6970;51.340;3.240;2023-04-16T00:41:48;8.90;99.90
13798;DHT22;6970;51.340;3.240;2023-04-16T00:44:16;8.90;99.90
13798;DHT22;6970;51.340;3.240;2023-04-16T00:46:43;8.90;99.90
13798;DHT22;6970;51.340;3.240;2023-04-16T00:49:11;8.90;99.90
13798;DHT22;6970;51.340;3.240;2023-04-16T00:51:41;8.90;99.90
13798;DHT22;6970;51.340;3.240;2023-04-16T00:54:11;8.90;99.90
13798;DHT22;6970;51.340;3.240;2023-04-16T00:56:40;8.90;99.90
13798;DHT22;6970;51.340;3.240;2023-04-16T00:59:11;8.90;99.90
13798;DHT22;6970;51.340;3.240;2023-04-16T01:01:39;8.90;99.90
13798;DHT22;6970;51.340;3.240;2023-04-16T01:04:07;8.90;99.90
13798;DHT22;6970;51.340;3.240;2023-04-16T01:06:37;8.90;99.90
13798;DHT22;6970;51.340;3.240;2023-04-16T01:09:08;8.90;99.90
13798;DHT22;6970;51.340;3.240;2023-04-16T01:11:35;9.00;99.90
13798;DHT22;6970;51.340;3.240;2023-04-16T01:14:06;9.00;99.90
13798;DHT22;6970;51.340;3.240;2023-04-16T01:16:34;9.00;99.90
13798;DHT22;6970;51.340;3.240;2023-04-16T01:19:02;8.90;99.90
13798;DHT22;6970;51.340;3.240;2023-04-16T01:21:32;8.90;99.90
13798;DHT22;6970;51.340;3.240;2023-04-16T01:24:13;8.90;99.90
13798;DHT22;6970;51.340;3.240;2023-04-16T01:26:42;8.90;99.90
13798;DHT22;6970;51.340;3.240;2023-04-16T01:29:12;8.90;99.90
13798;DHT22;6970;51.340;3.240;2023-04-16T01:31:42;8.90;99.90
13798;DHT22;6970;51.340;3.240;2023-04-16T01:34:13;8.90;99.90
13798;DHT22;6970;51.340;3.240;2023-04-16T01:36:41;8.90;99.90
13798;DHT22;6970;51.340;3.240;2023-04-16T01:39:09;8.90;99.90
13798;DHT22;6970;51.340;3.240;2023-04-16T01:41:39;8.90;99.90
13798;DHT22;6970;51.340;3.240;2023-04-16T01:44:09;8.90;99.90
13798;DHT22;6970;51.340;3.240;2023-04-16T01:46:39;8.90;99.90
13798;DHT22;6970;51.340;3.240;2023-04-16T01:49:12;8.90;99.90
13798;DHT22;6970;51.340;3.240;2023-04-16T01:51:41;8.90;99.90
13798;DHT22;6970;51.340;3.240;2023-04-16T01:54:11;8.90;99.90
13798;DHT22;6970;51.340;3.240;2023-04-16T01:56:41;8.90;99.90
13798;DHT22;6970;51.340;3.240;2023-04-16T01:59:11;8.90;99.90
13798;DHT22;6970;51.340;3.240;2023-04-16T02:01:41;8.80;99.90
13798;DHT22;6970;51.340;3.240;2023-04-16T02:04:11;8.80;99.90
13798;DHT22;6970;51.340;3.240;2023-04-16T02:06:39;8.70;99.90
13798;DHT22;6970;51.340;3.240;2023-04-16T02:09:07;8.70;99.90
13798;DHT22;6970;51.340;3.240;2023-04-16T02:11:38;8.80;99.90
13798;DHT22;6970;51.340;3.240;2023-04-16T02:14:07;8.80;99.90
13798;DHT22;6970;51.340;3.240;2023-04-16T02:16:34;8.80;99.90
13798;DHT22;6970;51.340;3.240;2023-04-16T02:19:02;8.90;99.90
13798;DHT22;6970;51.340;3.240;2023-04-16T02:21:33;8.80;99.90
13798;DHT22;6970;51.340;3.240;2023-04-16T02:24:01;8.80;99.90
13798;DHT22;6970;51.340;3.240;2023-04-16T02:26:43;8.90;99.90
13798;DHT22;6970;51.340;3.240;2023-04-16T02:29:14;8.80;99.90
13798;DHT22;6970;51.340;3.240;2023-04-16T02:31:42;8.80;99.90
13798;DHT22;6970;51.340;3.240;2023-04-16T02:34:12;8.80;99.90
13798;DHT22;6970;51.340;3.240;2023-04-16T02:36:42;8.70;99.90
13798;DHT22;6970;51.340;3.240;2023-04-16T02:39:12;8.70;99.90
13798;DHT22;6970;51.340;3.240;2023-04-16T02:41:42;8.60;99.90
13798;DHT22;6970;51.340;3.240;2023-04-16T02:44:10;8.70;99.90
13798;DHT22;6970;51.340;3.240;2023-04-16T02:46:37;8.70;99.90
13798;DHT22;6970;51.340;3.240;2023-04-16T02:49:07;8.70;99.90
13798;DHT22;6970;51.340;3.240;2023-04-16T02:51:37;8.70;99.90
13798;DHT22;6970;51.340;3.240;2023-04-16T02:54:07;8.70;99.90
13798;DHT22;6970;51.340;3.240;2023-04-16T02:56:34;8.70;99.90
13798;DHT22;6970;51.340;3.240;2023-04-16T02:59:01;8.70;99.90
13798;DHT22;6970;51.340;3.240;2023-04-16T03:01:34;8.70;99.90
13798;DHT22;6970;51.340;3.240;2023-04-16T03:04:05;8.70;99.90
13798;DHT22;6970;51.340;3.240;2023-04-16T03:06:34;8.70;99.90
13798;DHT22;6970;51.340;3.240;2023-04-16T03:09:01;8.70;99.90
13798;DHT22;6970;51.340;3.240;2023-04-16T03:11:29;8.70;99.90
13798;DHT22;6970;51.340;3.240;2023-04-16T03:13:59;8.70;99.90
13798;DHT22;6970;51.340;3.240;2023-04-16T03:16:29;8.60;99.90
13798;DHT22;6970;51.340;3.240;2023-04-16T03:18:59;8.60;99.90
13798;DHT22;6970;51.340;3.240;2023-04-16T03:21:27;8.60;99.90
13798;DHT22;6970;51.340;3.240;2023-04-16T03:23:54;8.60;99.90
13798;DHT22;6970;51.340;3.240;2023-04-16T03:26:24;8.70;99.90
13798;DHT22;6970;51.340;3.240;2023-04-16T03:28:53;8.60;99.90
13798;DHT22;6970;51.340;3.240;2023-04-16T03:31:23;8.60;99.90
13798;DHT22;6970;51.340;3.240;2023-04-16T03:33:53;8.60;99.90
13798;DHT22;6970;51.340;3.240;2023-04-16T03:36:23;8.60;99.90
13798;DHT22;6970;51.340;3.240;2023-04-16T03:38:54;8.60;99.90
13798;DHT22;6970;51.340;3.240;2023-04-16T03:41:23;8.70;99.90
13798;DHT22;6970;51.340;3.240;2023-04-16T03:43:52;8.70;99.90
13798;DHT22;6970;51.340;3.240;2023-04-16T03:46:21;8.70;99.90
13798;DHT22;6970;51.340;3.240;2023-04-16T03:48:51;8.70;99.90
13798;DHT22;6970;51.340;3.240;2023-04-16T03:51:21;8.70;99.90
13798;DHT22;6970;51.340;3.240;2023-04-16T03:53:49;8.70;99.90
13798;DHT22;6970;51.340;3.240;2023-04-16T03:56:19;8.70;99.90
13798;DHT22;6970;51.340;3.240;2023-04-16T03:58:49;8.80;99.90
13798;DHT22;6970;51.340;3.240;2023-04-16T04:01:16;8.80;99.90
13798;DHT22;6970;51.340;3.240;2023-04-16T04:03:50;8.80;99.90
13798;DHT22;6970;51.340;3.240;2023-04-16T04:06:18;8.70;99.90
13798;DHT22;6970;51.340;3.240;2023-04-16T04:08:48;8.70;99.90
13798;DHT22;6970;51.340;3.240;2023-04-16T04:11:17;8.70;99.90
13798;DHT22;6970;51.340;3.240;2023-04-16T04:13:48;8.70;99.90
13798;DHT22;6970;51.340;3.240;2023-04-16T04:16:18;8.70;99.90
13798;DHT22;6970;51.340;3.240;2023-04-16T04:18:47;8.70;99.90
13798;DHT22;6970;51.340;3.240;2023-04-16T04:21:17;8.70;99.90
13798;DHT22;6970;51.340;3.240;2023-04-16T04:23:47;8.70;99.90
13798;DHT22;6970;51.340;3.240;2023-04-16T04:26:17;8.70;99.90
13798;DHT22;6970;51.340;3.240;2023-04-16T04:28:47;8.70;99.90
13798;DHT22;6970;51.340;3.240;2023-04-16T04:31:15;8.70;99.90
13798;DHT22;6970;51.340;3.240;2023-04-16T04:33:44;8.70;99.90
13798;DHT22;6970;51.340;3.240;2023-04-16T04:36:13;8.70;99.90
13798;DHT22;6970;51.340;3.240;2023-04-16T04:38:40;8.60;99.90
13798;DHT22;6970;51.340;3.240;2023-04-16T04:41:10;8.60;99.90
13798;DHT22;6970;51.340;3.240;2023-04-16T04:43:40;8.50;99.90
13798;DHT22;6970;51.340;3.240;2023-04-16T04:46:08;8.50;99.90
13798;DHT22;6970;51.340;3.240;2023-04-16T04:48:39;8.50;99.90
13798;DHT22;6970;51.340;3.240;2023-04-16T04:51:07;8.60;99.90
13798;DHT22;6970;51.340;3.240;2023-04-16T04:53:37;8.60;99.90
13798;DHT22;6970;51.340;3.240;2023-04-16T04:56:04;8.60;99.90
13798;DHT22;6970;51.340;3.240;2023-04-16T04:58:39;8.60;99.90
13798;DHT22;6970;51.340;3.240;2023-04-16T05:01:08;8.60;99.90
13798;DHT22;6970;51.340;3.240;2023-04-16T05:03:36;8.70;99.90
13798;DHT22;6970;51.340;3.240;2023-04-16T05:06:04;8.70;99.90
13798;DHT22;6970;51.340;3.240;2023-04-16T05:08:33;8.70;99.90
13798;DHT22;6970;51.340;3.240;2023-04-16T05:11:02;8.60;99.90
13798;DHT22;6970;51.340;3.240;2023-04-16T05:13:30;8.60;99.90
13798;DHT22;6970;51.340;3.240;2023-04-16T05:15:58;8.60;99.90
13798;DHT22;6970;51.340;3.240;2023-04-16T05:18:29;8.70;99.90
13798;DHT22;6970;51.340;3.240;2023-04-16T05:20:56;8.70;99.90
13798;DHT22;6970;51.340;3.240;2023-04-16T05:23:23;8.70;99.90
13798;DHT22;6970;51.340;3.240;2023-04-16T05:25:53;8.70;99.90
13798;DHT22;6970;51.340;3.240;2023-04-16T05:28:29;8.80;99.90
13798;DHT22;6970;51.340;3.240;2023-04-16T05:30:56;8.80;99.90
13798;DHT22;6970;51.340;3.240;2023-04-16T05:33:25;8.80;99.90
13798;DHT22;6970;51.340;3.240;2023-04-16T05:35:54;8.80;99.90
13798;DHT22;6970;51.340;3.240;2023-04-16T05:38:25;8.70;99.90
13798;DHT22;6970;51.340;3.240;2023-04-16T05:40:53;8.70;99.90
13798;DHT22;6970;51.340;3.240;2023-04-16T05:43:20;8.70;99.90
13798;DHT22;6970;51.340;3.240;2023-04-16T05:45:48;8.70;99.90
13798;DHT22;6970;51.340;3.240;2023-04-16T05:48:15;8.80;99.90
13798;DHT22;6970;51.340;3.240;2023-04-16T05:50:42;8.80;99.90
13798;DHT22;6970;51.340;3.240;2023-04-16T05:53:09;8.80;99.90
13798;DHT22;6970;51.340;3.240;2023-04-16T05:55:39;8.80;99.90
13798;DHT22;6970;51.340;3.240;2023-04-16T05:58:09;8.80;99.90
13798;DHT22;6970;51.340;3.240;2023-04-16T06:00:36;8.80;99.90
13798;DHT22;6970;51.340;3.240;2023-04-16T06:03:06;8.80;99.90
13798;DHT22;6970;51.340;3.240;2023-04-16T06:05:36;8.90;99.90
13798;DHT22;6970;51.340;3.240;2023-04-16T06:08:05;8.90;99.90
13798;DHT22;6970;51.340;3.240;2023-04-16T06:10:33;8.90;99.90
13798;DHT22;6970;51.340;3.240;2023-04-16T06:13:00;8.90;99.90
13798;DHT22;6970;51.340;3.240;2023-04-16T06:15:28;9.00;99.90
13798;DHT22;6970;51.340;3.240;2023-04-16T06:17:57;9.00;99.90
13798;DHT22;6970;51.340;3.240;2023-04-16T06:20:26;9.10;99.90
13798;DHT22;6970;51.340;3.240;2023-04-16T06:22:56;9.10;99.90
13798;DHT22;6970;51.340;3.240;2023-04-16T06:25:23;9.10;99.90
13798;DHT22;6970;51.340;3.240;2023-04-16T06:27:50;9.20;99.90
13798;DHT22;6970;51.340;3.240;2023-04-16T06:30:18;9.30;99.90
13798;DHT22;6970;51.340;3.240;2023-04-16T06:32:45;9.30;99.90
13798;DHT22;6970;51.340;3.240;2023-04-16T06:35:13;9.40;99.90
13798;DHT22;6970;51.340;3.240;2023-04-16T06:37:40;9.50;99.90
13798;DHT22;6970;51.340;3.240;2023-04-16T06:40:08;9.60;99.90
13798;DHT22;6970;51.340;3.240;2023-04-16T06:42:36;9.60;99.90
13798;DHT22;6970;51.340;3.240;2023-04-16T06:45:05;9.70;99.90
13798;DHT22;6970;51.340;3.240;2023-04-16T06:47:32;9.70;99.90
13798;DHT22;6970;51.340;3.240;2023-04-16T06:50:01;9.70;99.90
13798;DHT22;6970;51.340;3.240;2023-04-16T06:52:28;9.90;99.90
13798;DHT22;6970;51.340;3.240;2023-04-16T06:54:56;9.90;99.90
13798;DHT22;6970;51.340;3.240;2023-04-16T06:57:25;10.10;99.90
13798;DHT22;6970;51.340;3.240;2023-04-16T06:59:54;10.30;99.90
13798;DHT22;6970;51.340;3.240;2023-04-16T07:02:22;10.50;99.90
13798;DHT22;6970;51.340;3.240;2023-04-16T07:04:53;10.70;99.90
13798;DHT22;6970;51.340;3.240;2023-04-16T07:07:22;10.80;99.90
13798;DHT22;6970;51.340;3.240;2023-04-16T07:09:49;10.90;99.90
13798;DHT22;6970;51.340;3.240;2023-04-16T07:12:16;11.00;99.90
13798;DHT22;6970;51.340;3.240;2023-04-16T07:14:48;11.20;99.90
13798;DHT22;6970;51.340;3.240;2023-04-16T07:17:17;11.30;99.90
13798;DHT22;6970;51.340;3.240;2023-04-16T07:19:46;11.30;99.90
13798;DHT22;6970;51.340;3.240;2023-04-16T07:22:13;11.20;99.90
13798;DHT22;6970;51.340;3.240;2023-04-16T07:24:40;11.10;99.90
13798;DHT22;6970;51.340;3.240;2023-04-16T07:27:10;11.00;99.90
13798;DHT22;6970;51.340;3.240;2023-04-16T07:29:39;11.00;99.90
13798;DHT22;6970;51.340;3.240;2023-04-16T07:32:07;11.00;99.90
13798;DHT22;6970;51.340;3.240;2023-04-16T07:34:36;11.00;99.90
13798;DHT22;6970;51.340;3.240;2023-04-16T07:37:07;11.00;99.90
13798;DHT22;6970;51.340;3.240;2023-04-16T07:39:34;11.30;99.90
13798;DHT22;6970;51.340;3.240;2023-04-16T07:42:01;11.60;99.90
13798;DHT22;6970;51.340;3.240;2023-04-16T07:44:28;11.90;99.90
13798;DHT22;6970;51.340;3.240;2023-04-16T07:46:55;12.20;99.90
13798;DHT22;6970;51.340;3.240;2023-04-16T07:49:22;12.40;99.90
13798;DHT22;6970;51.340;3.240;2023-04-16T07:51:49;12.50;99.90
13798;DHT22;6970;51.340;3.240;2023-04-16T07:54:16;12.90;99.90
13798;DHT22;6970;51.340;3.240;2023-04-16T07:56:43;13.20;99.90
13798;DHT22;6970;51.340;3.240;2023-04-16T07:59:11;13.40;99.90
13798;DHT22;6970;51.340;3.240;2023-04-16T08:01:52;13.60;99.90
13798;DHT22;6970;51.340;3.240;2023-04-16T08:04:21;13.70;99.90
13798;DHT22;6970;51.340;3.240;2023-04-16T08:06:54;13.60;99.90
13798;DHT22;6970;51.340;3.240;2023-04-16T08:09:25;13.60;99.90
13798;DHT22;6970;51.340;3.240;2023-04-16T08:11:55;13.60;99.90
13798;DHT22;6970;51.340;3.240;2023-04-16T08:14:25;13.80;99.90
13798;DHT22;6970;51.340;3.240;2023-04-16T08:16:54;14.00;99.90
13798;DHT22;6970;51.340;3.240;2023-04-16T08:19:24;14.00;99.90
13798;DHT22;6970;51.340;3.240;2023-04-16T08:21:51;13.90;99.90
13798;DHT22;6970;51.340;3.240;2023-04-16T08:24:19;13.80;99.90
13798;DHT22;6970;51.340;3.240;2023-04-16T08:26:47;13.50;99.90
13798;DHT22;6970;51.340;3.240;2023-04-16T08:29:17;13.40;99.90
13798;DHT22;6970;51.340;3.240;2023-04-16T08:31:44;13.20;99.90
13798;DHT22;6970;51.340;3.240;2023-04-16T08:34:18;13.10;99.90
13798;DHT22;6970;51.340;3.240;2023-04-16T08:36:45;13.30;99.90
13798;DHT22;6970;51.340;3.240;2023-04-16T08:39:12;13.50;99.90
13798;DHT22;6970;51.340;3.240;2023-04-16T08:41:45;13.50;99.90
13798;DHT22;6970;51.340;3.240;2023-04-16T08:44:34;13.50;99.90
13798;DHT22;6970;51.340;3.240;2023-04-16T08:47:08;13.50;99.90
13798;DHT22;6970;51.340;3.240;2023-04-16T08:49:42;13.40;99.90
13798;DHT22;6970;51.340;3.240;2023-04-16T08:52:17;13.60;99.90
13798;DHT22;6970;51.340;3.240;2023-04-16T08:54:58;13.90;99.90
13798;DHT22;6970;51.340;3.240;2023-04-16T08:57:36;14.10;99.90
13798;DHT22;6970;51.340;3.240;2023-04-16T09:00:06;14.30;99.90
13798;DHT22;6970;51.340;3.240;2023-04-16T09:02:38;14.60;99.90
13798;DHT22;6970;51.340;3.240;2023-04-16T09:05:07;14.90;99.90
13798;DHT22;6970;51.340;3.240;2023-04-16T09:07:38;15.10;99.90
13798;DHT22;6970;51.340;3.240;2023-04-16T09:10:07;15.30;99.90
13798;DHT22;6970;51.340;3.240;2023-04-16T09:12:41;15.50;99.90
13798;DHT22;6970;51.340;3.240;2023-04-16T09:15:10;15.60;99.90
13798;DHT22;6970;51.340;3.240;2023-04-16T09:17:39;15.30;99.90
13798;DHT22;6970;51.340;3.240;2023-04-16T09:20:08;15.10;99.90
13798;DHT22;6970;51.340;3.240;2023-04-16T09:22:37;15.00;99.90
13798;DHT22;6970;51.340;3.240;2023-04-16T09:25:06;15.20;99.90
13798;DHT22;6970;51.340;3.240;2023-04-16T09:27:34;15.30;99.90
13798;DHT22;6970;51.340;3.240;2023-04-16T09:30:24;15.40;99.90
13798;DHT22;6970;51.340;3.240;2023-04-16T09:33:11;15.40;99.90
13798;DHT22;6970;51.340;3.240;2023-04-16T09:35:49;15.30;99.90
13798;DHT22;6970;51.340;3.240;2023-04-16T09:38:19;15.10;99.90
13798;DHT22;6970;51.340;3.240;2023-04-16T09:41:05;14.80;99.90
13798;DHT22;6970;51.340;3.240;2023-04-16T09:43:33;14.50;99.90
13798;DHT22;6970;51.340;3.240;2023-04-16T09:46:03;14.20;99.90
13798;DHT22;6970;51.340;3.240;2023-04-16T09:48:36;14.00;99.90
13798;DHT22;6970;51.340;3.240;2023-04-16T09:51:05;13.90;99.90
13798;DHT22;6970;51.340;3.240;2023-04-16T09:53:35;13.90;99.90
13798;DHT22;6970;51.340;3.240;2023-04-16T09:56:05;13.90;99.90
13798;DHT22;6970;51.340;3.240;2023-04-16T09:58:36;14.20;99.90
13798;DHT22;6970;51.340;3.240;2023-04-16T10:01:11;14.30;99.90
13798;DHT22;6970;51.340;3.240;2023-04-16T10:03:39;14.40;99.90
13798;DHT22;6970;51.340;3.240;2023-04-16T10:06:17;14.30;99.90
13798;DHT22;6970;51.340;3.240;2023-04-16T10:08:50;14.10;99.90
13798;DHT22;6970;51.340;3.240;2023-04-16T10:11:19;13.90;99.90
13798;DHT22;6970;51.340;3.240;2023-04-16T10:13:47;13.70;99.90
13798;DHT22;6970;51.340;3.240;2023-04-16T10:16:16;13.70;99.90
13798;DHT22;6970;51.340;3.240;2023-04-16T10:18:47;13.60;99.90
13798;DHT22;6970;51.340;3.240;2023-04-16T10:21:18;13.50;99.90
13798;DHT22;6970;51.340;3.240;2023-04-16T10:23:48;13.40;99.90
13798;DHT22;6970;51.340;3.240;2023-04-16T10:26:17;13.30;99.90
13798;DHT22;6970;51.340;3.240;2023-04-16T10:28:48;13.30;99.90
13798;DHT22;6970;51.340;3.240;2023-04-16T10:31:16;13.30;99.90
13798;DHT22;6970;51.340;3.240;2023-04-16T10:33:46;13.40;99.90
13798;DHT22;6970;51.340;3.240;2023-04-16T10:36:15;13.70;99.90
13798;DHT22;6970;51.340;3.240;2023-04-16T10:38:46;13.80;99.90
13798;DHT22;6970;51.340;3.240;2023-04-16T10:41:15;13.80;99.90
13798;DHT22;6970;51.340;3.240;2023-04-16T10:43:46;14.10;99.90
13798;DHT22;6970;51.340;3.240;2023-04-16T10:46:32;14.40;99.90
13798;DHT22;6970;51.340;3.240;2023-04-16T10:49:11;14.90;99.90
13798;DHT22;6970;51.340;3.240;2023-04-16T10:51:38;15.30;99.90
13798;DHT22;6970;51.340;3.240;2023-04-16T10:56:44;15.80;99.90
13798;DHT22;6970;51.340;3.240;2023-04-16T10:59:13;16.10;99.90
13798;DHT22;6970;51.340;3.240;2023-04-16T11:01:45;16.40;99.90
13798;DHT22;6970;51.340;3.240;2023-04-16T11:10:04;17.10;99.10
13798;DHT22;6970;51.340;3.240;2023-04-16T11:12:39;17.20;99.00
13798;DHT22;6970;51.340;3.240;2023-04-16T11:15:07;17.20;98.70
13798;DHT22;6970;51.340;3.240;2023-04-16T11:17:49;17.20;98.10
13798;DHT22;6970;51.340;3.240;2023-04-16T11:20:23;17.20;98.30
13798;DHT22;6970;51.340;3.240;2023-04-16T11:22:54;17.10;98.10
13798;DHT22;6970;51.340;3.240;2023-04-16T11:25:23;17.00;98.30
13798;DHT22;6970;51.340;3.240;2023-04-16T11:27:53;17.00;98.30
13798;DHT22;6970;51.340;3.240;2023-04-16T11:30:38;17.00;98.40
13798;DHT22;6970;51.340;3.240;2023-04-16T11:33:07;17.20;98.40
13798;DHT22;6970;51.340;3.240;2023-04-16T11:35:37;17.20;98.40
13798;DHT22;6970;51.340;3.240;2023-04-16T11:38:09;17.30;98.10
13798;DHT22;6970;51.340;3.240;2023-04-16T11:40:41;17.20;98.40
13798;DHT22;6970;51.340;3.240;2023-04-16T11:43:17;17.10;98.20
13798;DHT22;6970;51.340;3.240;2023-04-16T11:48:24;17.00;98.30
13798;DHT22;6970;51.340;3.240;2023-04-16T11:50:57;17.10;98.10
13798;DHT22;6970;51.340;3.240;2023-04-16T11:53:27;17.10;97.90
13798;DHT22;6970;51.340;3.240;2023-04-16T11:55:56;17.20;97.90
13798;DHT22;6970;51.340;3.240;2023-04-16T11:58:26;17.20;97.90
13798;DHT22;6970;51.340;3.240;2023-04-16T12:00:56;17.30;97.70
13798;DHT22;6970;51.340;3.240;2023-04-16T12:03:40;17.40;97.70
13798;DHT22;6970;51.340;3.240;2023-04-16T12:06:14;17.60;97.50
13798;DHT22;6970;51.340;3.240;2023-04-16T12:08:44;17.70;97.60
13798;DHT22;6970;51.340;3.240;2023-04-16T12:11:14;17.80;97.20
13798;DHT22;6970;51.340;3.240;2023-04-16T12:13:41;17.70;97.30
13798;DHT22;6970;51.340;3.240;2023-04-16T12:16:21;17.60;97.40
13798;DHT22;6970;51.340;3.240;2023-04-16T12:19:01;17.60;97.50
13798;DHT22;6970;51.340;3.240;2023-04-16T12:21:48;17.60;97.70
13798;DHT22;6970;51.340;3.240;2023-04-16T12:24:17;17.70;97.50
13798;DHT22;6970;51.340;3.240;2023-04-16T12:26:58;17.70;97.40
13798;DHT22;6970;51.340;3.240;2023-04-16T12:29:36;17.50;97.00
13798;DHT22;6970;51.340;3.240;2023-04-16T12:32:04;17.40;97.30
13798;DHT22;6970;51.340;3.240;2023-04-16T12:34:52;17.40;97.70
13798;DHT22;6970;51.340;3.240;2023-04-16T12:37:27;17.30;97.90
13798;DHT22;6970;51.340;3.240;2023-04-16T12:40:00;17.20;97.80
13798;DHT22;6970;51.340;3.240;2023-04-16T12:42:28;17.10;97.80
13798;DHT22;6970;51.340;3.240;2023-04-16T12:45:02;17.00;97.80
13798;DHT22;6970;51.340;3.240;2023-04-16T12:47:31;16.90;98.00
13798;DHT22;6970;51.340;3.240;2023-04-16T12:49:58;17.00;98.20
13798;DHT22;6970;51.340;3.240;2023-04-16T12:52:25;16.90;97.90
13798;DHT22;6970;51.340;3.240;2023-04-16T12:54:55;16.80;98.00
13798;DHT22;6970;51.340;3.240;2023-04-16T12:57:23;16.90;97.90
13798;DHT22;6970;51.340;3.240;2023-04-16T12:59:57;16.80;98.10
13798;DHT22;6970;51.340;3.240;2023-04-16T13:02:27;16.90;98.30
13798;DHT22;6970;51.340;3.240;2023-04-16T13:04:58;16.90;97.50
13798;DHT22;6970;51.340;3.240;2023-04-16T13:07:28;16.70;97.30
13798;DHT22;6970;51.340;3.240;2023-04-16T13:10:01;16.30;97.80
13798;DHT22;6970;51.340;3.240;2023-04-16T13:12:30;16.10;98.30
13798;DHT22;6970;51.340;3.240;2023-04-16T13:14:58;16.10;98.90
13798;DHT22;6970;51.340;3.240;2023-04-16T13:17:26;16.30;98.90
13798;DHT22;6970;51.340;3.240;2023-04-16T13:19:55;16.40;98.30
13798;DHT22;6970;51.340;3.240;2023-04-16T13:22:26;16.50;98.40
13798;DHT22;6970;51.340;3.240;2023-04-16T13:24:53;16.40;98.30
13798;DHT22;6970;51.340;3.240;2023-04-16T13:27:23;16.30;98.40
13798;DHT22;6970;51.340;3.240;2023-04-16T13:29:52;16.40;98.90
13798;DHT22;6970;51.340;3.240;2023-04-16T13:32:19;16.40;98.50
13798;DHT22;6970;51.340;3.240;2023-04-16T13:34:47;16.50;98.40
13798;DHT22;6970;51.340;3.240;2023-04-16T13:37:15;16.40;98.00
13798;DHT22;6970;51.340;3.240;2023-04-16T13:39:45;16.40;98.30
13798;DHT22;6970;51.340;3.240;2023-04-16T13:42:13;16.50;98.20
13798;DHT22;6970;51.340;3.240;2023-04-16T13:44:41;16.50;97.90
13798;DHT22;6970;51.340;3.240;2023-04-16T13:47:08;16.40;98.10
13798;DHT22;6970;51.340;3.240;2023-04-16T13:49:36;16.40;98.20
13798;DHT22;6970;51.340;3.240;2023-04-16T13:52:03;16.30;98.20
13798;DHT22;6970;51.340;3.240;2023-04-16T13:54:32;16.00;98.20
13798;DHT22;6970;51.340;3.240;2023-04-16T13:57:01;16.00;98.70
13798;DHT22;6970;51.340;3.240;2023-04-16T13:59:30;15.90;98.50
13798;DHT22;6970;51.340;3.240;2023-04-16T14:02:00;15.80;98.80
13798;DHT22;6970;51.340;3.240;2023-04-16T14:04:30;15.70;99.10
13798;DHT22;6970;51.340;3.240;2023-04-16T14:06:59;15.60;98.90
13798;DHT22;6970;51.340;3.240;2023-04-16T14:09:28;15.60;99.20
13798;DHT22;6970;51.340;3.240;2023-04-16T14:11:56;15.70;99.30
13798;DHT22;6970;51.340;3.240;2023-04-16T14:14:23;15.60;99.40
13798;DHT22;6970;51.340;3.240;2023-04-16T14:16:57;15.30;99.50
13798;DHT22;6970;51.340;3.240;2023-04-16T14:19:27;15.10;99.60
13798;DHT22;6970;51.340;3.240;2023-04-16T14:21:55;14.90;99.90
13798;DHT22;6970;51.340;3.240;2023-04-16T14:24:25;14.90;99.90
13798;DHT22;6970;51.340;3.240;2023-04-16T14:26:55;14.90;99.90
13798;DHT22;6970;51.340;3.240;2023-04-16T14:29:25;15.00;99.90
13798;DHT22;6970;51.340;3.240;2023-04-16T14:31:58;14.90;99.90
13798;DHT22;6970;51.340;3.240;2023-04-16T14:34:31;14.80;99.90
13798;DHT22;6970;51.340;3.240;2023-04-16T14:36:58;14.80;99.90
13798;DHT22;6970;51.340;3.240;2023-04-16T14:39:31;14.90;99.90
13798;DHT22;6970;51.340;3.240;2023-04-16T14:42:01;14.70;99.90
13798;DHT22;6970;51.340;3.240;2023-04-16T14:44:31;14.70;99.90
13798;DHT22;6970;51.340;3.240;2023-04-16T14:47:00;14.60;99.90
13798;DHT22;6970;51.340;3.240;2023-04-16T14:49:28;14.50;99.90
13798;DHT22;6970;51.340;3.240;2023-04-16T14:51:57;14.40;99.90
13798;DHT22;6970;51.340;3.240;2023-04-16T14:54:24;14.50;99.90
13798;DHT22;6970;51.340;3.240;2023-04-16T14:56:52;14.50;99.90
13798;DHT22;6970;51.340;3.240;2023-04-16T14:59:19;14.40;99.90
13798;DHT22;6970;51.340;3.240;2023-04-16T15:01:46;14.40;99.90
13798;DHT22;6970;51.340;3.240;2023-04-16T15:04:13;14.40;99.90
13798;DHT22;6970;51.340;3.240;2023-04-16T15:06:42;14.30;99.90
13798;DHT22;6970;51.340;3.240;2023-04-16T15:09:12;14.40;99.90
13798;DHT22;6970;51.340;3.240;2023-04-16T15:11:39;14.40;99.90
13798;DHT22;6970;51.340;3.240;2023-04-16T15:14:09;14.30;99.90
13798;DHT22;6970;51.340;3.240;2023-04-16T15:16:47;14.20;99.90
13798;DHT22;6970;51.340;3.240;2023-04-16T15:19:17;14.20;99.90
13798;DHT22;6970;51.340;3.240;2023-04-16T15:21:47;14.30;99.90
13798;DHT22;6970;51.340;3.240;2023-04-16T15:24:15;14.20;99.90
13798;DHT22;6970;51.340;3.240;2023-04-16T15:26:45;14.20;99.90
13798;DHT22;6970;51.340;3.240;2023-04-16T15:29:15;14.10;99.90
13798;DHT22;6970;51.340;3.240;2023-04-16T15:31:46;14.10;99.90
13798;DHT22;6970;51.340;3.240;2023-04-16T15:34:13;14.10;99.90
13798;DHT22;6970;51.340;3.240;2023-04-16T15:36:40;14.00;99.90
13798;DHT22;6970;51.340;3.240;2023-04-16T15:39:09;13.90;99.90
13798;DHT22;6970;51.340;3.240;2023-04-16T15:41:36;13.80;99.90
13798;DHT22;6970;51.340;3.240;2023-04-16T15:44:23;13.70;99.90
13798;DHT22;6970;51.340;3.240;2023-04-16T15:46:53;13.60;99.90
13798;DHT22;6970;51.340;3.240;2023-04-16T15:49:20;13.50;99.90
13798;DHT22;6970;51.340;3.240;2023-04-16T15:51:50;13.40;99.90
13798;DHT22;6970;51.340;3.240;2023-04-16T15:54:20;13.30;99.90
13798;DHT22;6970;51.340;3.240;2023-04-16T15:56:50;13.10;99.90
13798;DHT22;6970;51.340;3.240;2023-04-16T15:59:18;12.90;99.90
13798;DHT22;6970;51.340;3.240;2023-04-16T16:01:45;12.70;99.90
13798;DHT22;6970;51.340;3.240;2023-04-16T16:04:13;12.50;99.90
13798;DHT22;6970;51.340;3.240;2023-04-16T16:06:43;12.40;99.90
13798;DHT22;6970;51.340;3.240;2023-04-16T16:09:13;12.50;99.90
13798;DHT22;6970;51.340;3.240;2023-04-16T16:11:43;12.60;99.90
13798;DHT22;6970;51.340;3.240;2023-04-16T16:14:13;12.60;99.90
13798;DHT22;6970;51.340;3.240;2023-04-16T16:16:45;12.60;99.90
13798;DHT22;6970;51.340;3.240;2023-04-16T16:19:15;12.60;99.90
13798;DHT22;6970;51.340;3.240;2023-04-16T16:21:44;12.60;99.90